エカテリンブルク の空港の天気 - METARとTAF

コルツォヴォ空港 ( USSS / SVX ) - ロシア エカテリンブルク
飛行場実況気象(Metar)
観測時間11/27 14:30 YEKT (11/27 09:30 UTC)
風向・風速東 1m/s
視程10km以上
天気現象
なし
気温-22℃
湿度84%
気圧1044hPa
METARUSSS 270930Z 09001MPS CAVOK M22/M24 Q1044 R08R/81//60 NOSIG RMK QFE763/1017
過去の天気等 Google飛行場航空写真 Wunderground天気予報

過去48時間のMETAR

飛行場予報(TAF)
発表時間: 11/27 12:49 YEKT (11/27 07:49 UTC)
予報対象時間: 27日14時 YEKT ~ 28日14時 YEKT
風向・風速東南東 3m/s 瞬間風速 10m/s
視程10km以上
なし
27日19時 YEKT から
風向・風速南南東 3m/s
視程6000m
全天の4割程度の雲 雲底高度 610m
28日9時 YEKT ~ 28日11時 YEKT に徐々に
視程10km以上
全天の4割程度の雲 雲底高度 910m
TAF USSS 270749Z 2709/2809 12003G10MPS CAVOK
FM271400 16003MPS 6000 SCT020
BECMG 2804/2806 9999 SCT030